createdAt,value
2022-08-24T00:01:40.522Z,6.78
2022-08-24T00:04:07.675Z,5.45
2022-08-24T00:06:35.259Z,4.22
2022-08-24T00:09:02.360Z,4.78
2022-08-24T00:11:29.657Z,5.45
2022-08-24T00:13:57.290Z,5.72
2022-08-24T00:16:25.302Z,6.75
2022-08-24T00:18:52.914Z,4.85
2022-08-24T00:21:20.124Z,5.72
2022-08-24T00:23:49.643Z,4.40
2022-08-24T00:26:17.317Z,6.28
2022-08-24T00:28:56.319Z,4.15
2022-08-24T00:31:23.424Z,4.45
2022-08-24T00:33:50.905Z,3.95
2022-08-24T00:36:18.089Z,3.95
2022-08-24T00:38:45.192Z,3.10
2022-08-24T00:41:14.626Z,3.15
2022-08-24T00:43:55.359Z,7.68
2022-08-24T00:46:49.240Z,4.32
2022-08-24T00:49:35.762Z,3.50
2022-08-24T00:52:12.097Z,4.60
2022-08-24T00:54:46.583Z,3.28
2022-08-24T00:57:17.856Z,3.25
2022-08-24T00:59:52.582Z,4.30
2022-08-24T01:02:42.294Z,4.28
2022-08-24T01:05:11.674Z,3.67
2022-08-24T01:07:39.792Z,3.63
2022-08-24T01:10:16.519Z,3.13
2022-08-24T01:13:00.705Z,3.22
2022-08-24T01:15:35.473Z,2.78
2022-08-24T01:18:21.624Z,2.88
2022-08-24T01:21:02.247Z,2.30
2022-08-24T01:23:42.764Z,2.60
2022-08-24T01:26:18.391Z,2.60
2022-08-24T01:28:49.939Z,2.72
2022-08-24T01:31:24.453Z,3.05
2022-08-24T01:33:54.255Z,3.42
2022-08-24T01:36:46.692Z,2.40
2022-08-24T01:39:26.395Z,4.30
2022-08-24T01:41:54.119Z,2.28
2022-08-24T01:44:24.323Z,1.80
2022-08-24T01:46:53.894Z,2.88
2022-08-24T01:49:25.694Z,2.35
2022-08-24T01:51:53.760Z,2.00
2022-08-24T01:54:22.277Z,2.45
2022-08-24T01:56:49.473Z,2.80
2022-08-24T01:59:17.490Z,2.72
2022-08-24T02:01:49.531Z,2.63
2022-08-24T02:04:19.134Z,3.10
2022-08-24T02:06:48.033Z,2.22
2022-08-24T02:09:16.967Z,2.10
2022-08-24T02:11:44.242Z,2.08
2022-08-24T02:14:14.511Z,2.83
2022-08-24T02:16:42.654Z,2.40
2022-08-24T02:19:09.952Z,2.00
2022-08-24T02:21:38.175Z,2.45
2022-08-24T02:24:07.761Z,2.00
2022-08-24T02:26:35.241Z,2.17
2022-08-24T02:29:03.853Z,4.15
2022-08-24T02:31:32.406Z,2.10
2022-08-24T02:34:00.350Z,2.33
2022-08-24T02:36:27.523Z,2.50
2022-08-24T02:38:59.065Z,2.88
2022-08-24T02:41:26.599Z,2.72
2022-08-24T02:43:56.048Z,3.25
2022-08-24T02:46:27.572Z,3.10
2022-08-24T02:49:11.436Z,2.55
2022-08-24T02:51:45.852Z,2.17
2022-08-24T02:54:18.394Z,2.38
2022-08-24T02:56:48.086Z,2.72
2022-08-24T02:59:16.899Z,2.10
2022-08-24T03:01:44.875Z,4.30
2022-08-24T03:04:13.010Z,2.20
2022-08-24T03:06:40.431Z,2.40
2022-08-24T03:09:08.118Z,2.20
2022-08-24T03:11:35.312Z,2.58
2022-08-24T03:14:02.558Z,2.63
2022-08-24T03:16:30.408Z,2.60
2022-08-24T03:18:58.066Z,2.70
2022-08-24T03:21:28.757Z,5.63
2022-08-24T03:23:56.911Z,3.92
2022-08-24T03:26:24.408Z,3.20
2022-08-24T03:28:54.164Z,3.17
2022-08-24T03:31:21.758Z,3.13
2022-08-24T03:33:51.263Z,3.35
2022-08-24T03:36:19.125Z,2.67
2022-08-24T03:38:46.253Z,3.20
2022-08-24T03:41:13.590Z,4.00
2022-08-24T03:43:46.920Z,2.65
2022-08-24T03:46:28.806Z,2.42
2022-08-24T03:48:59.404Z,2.72
2022-08-24T03:51:28.778Z,3.10
2022-08-24T03:53:58.804Z,3.78
2022-08-24T03:56:29.082Z,2.47
2022-08-24T03:58:57.589Z,3.22
2022-08-24T04:01:31.032Z,2.55
2022-08-24T04:03:59.503Z,3.45
2022-08-24T04:06:31.860Z,3.67
2022-08-24T04:08:59.252Z,2.67
2022-08-24T04:11:28.662Z,2.22
2022-08-24T04:13:58.362Z,2.80
2022-08-24T04:16:27.093Z,2.97
2022-08-24T04:19:04.551Z,2.60
2022-08-24T04:21:35.733Z,2.38
2022-08-24T04:24:08.043Z,4.93
2022-08-24T04:26:44.594Z,2.28
2022-08-24T04:29:16.806Z,3.42
2022-08-24T04:31:49.215Z,2.47
2022-08-24T04:34:18.641Z,2.97
2022-08-24T04:36:46.942Z,2.60
2022-08-24T04:39:15.225Z,2.83
2022-08-24T04:42:03.213Z,2.67
2022-08-24T04:44:35.550Z,2.42
2022-08-24T04:47:03.227Z,2.33
2022-08-24T04:49:30.685Z,2.40
2022-08-24T04:51:58.503Z,2.15
2022-08-24T04:54:26.401Z,3.17
2022-08-24T04:57:17.755Z,2.72
2022-08-24T04:59:46.940Z,3.20
2022-08-24T05:02:14.526Z,2.42
2022-08-24T05:04:42.129Z,2.58
2022-08-24T05:07:12.503Z,2.63
2022-08-24T05:09:41.866Z,2.67
2022-08-24T05:12:09.565Z,2.97
2022-08-24T05:14:40.332Z,4.43
2022-08-24T05:17:10.426Z,2.95
2022-08-24T05:19:38.080Z,4.28
2022-08-24T05:22:05.544Z,2.47
2022-08-24T05:24:33.293Z,3.30
2022-08-24T05:27:01.236Z,3.05
2022-08-24T05:29:28.918Z,3.85
2022-08-24T05:31:56.101Z,4.82
2022-08-24T05:34:24.348Z,3.70
2022-08-24T05:36:51.970Z,3.30
2022-08-24T05:39:37.668Z,3.75
2022-08-24T05:42:08.678Z,4.90
2022-08-24T05:44:42.196Z,4.90
2022-08-24T05:47:10.433Z,5.63
2022-08-24T05:49:41.573Z,6.57
2022-08-24T05:52:10.439Z,6.25
2022-08-24T05:54:37.763Z,7.93
2022-08-24T05:57:06.518Z,6.95
2022-08-24T05:59:43.187Z,5.82
2022-08-24T06:02:15.616Z,5.75
2022-08-24T06:04:42.890Z,6.57
2022-08-24T06:07:12.427Z,8.38
2022-08-24T06:09:43.671Z,6.90
2022-08-24T06:12:14.614Z,8.23
2022-08-24T06:14:47.811Z,7.20
2022-08-24T06:17:18.786Z,6.28
2022-08-24T06:19:46.282Z,7.13
2022-08-24T06:22:13.349Z,7.75
2022-08-24T06:25:00.355Z,6.85
2022-08-24T06:27:29.133Z,6.97
2022-08-24T06:30:07.082Z,10.43
2022-08-24T06:32:53.148Z,8.35
2022-08-24T06:35:29.397Z,6.13
2022-08-24T06:37:58.077Z,7.93
2022-08-24T06:40:26.461Z,5.60
2022-08-24T06:42:54.213Z,8.10
2022-08-24T06:45:55.723Z,6.03
2022-08-24T06:50:59.433Z,6.57
2022-08-24T06:53:29.122Z,5.97
2022-08-24T06:55:59.141Z,5.93
2022-08-24T06:58:28.940Z,5.13
2022-08-24T07:00:57.581Z,6.45
2022-08-24T07:03:25.865Z,5.15
2022-08-24T07:06:04.720Z,7.10
2022-08-24T07:08:42.420Z,8.95
2022-08-24T07:11:12.450Z,6.07
2022-08-24T07:13:39.536Z,7.28
2022-08-24T07:16:07.113Z,7.20
2022-08-24T07:18:37.309Z,8.35
2022-08-24T07:21:05.441Z,7.03
2022-08-24T07:23:48.039Z,8.52
2022-08-24T07:26:23.313Z,7.25
2022-08-24T07:28:54.750Z,6.35
2022-08-24T07:31:23.209Z,5.53
2022-08-24T07:34:01.482Z,5.53
2022-08-24T07:36:28.761Z,6.20
2022-08-24T07:38:59.542Z,4.88
2022-08-24T07:44:17.938Z,4.15
2022-08-24T07:46:46.234Z,3.95
2022-08-24T07:49:34.684Z,5.15
2022-08-24T07:52:04.183Z,4.32
2022-08-24T07:54:31.477Z,4.53
2022-08-24T07:57:06.546Z,7.05
2022-08-24T07:59:36.215Z,4.88
2022-08-24T08:02:04.075Z,7.82
2022-08-24T08:04:32.106Z,4.70
2022-08-24T08:07:03.274Z,5.07
2022-08-24T08:09:33.758Z,4.82
2022-08-24T08:12:01.014Z,4.93
2022-08-24T08:14:30.015Z,4.43
2022-08-24T08:16:57.313Z,5.28
2022-08-24T08:19:24.793Z,4.88
2022-08-24T08:22:12.394Z,5.30
2022-08-24T08:25:14.873Z,6.82
2022-08-24T08:27:45.490Z,5.30
2022-08-24T08:30:13.288Z,4.55
2022-08-24T08:32:42.737Z,4.68
2022-08-24T08:35:10.902Z,4.68
2022-08-24T08:37:38.502Z,4.90
2022-08-24T08:40:12.618Z,4.57
2022-08-24T08:43:06.339Z,3.60
2022-08-24T08:46:07.008Z,3.90
2022-08-24T08:49:21.724Z,3.67
2022-08-24T08:52:08.113Z,3.58
2022-08-24T08:54:48.530Z,3.08
2022-08-24T08:57:49.652Z,2.97
2022-08-24T09:00:22.459Z,3.25
2022-08-24T09:03:25.602Z,3.50
2022-08-24T09:06:50.316Z,3.25
2022-08-24T09:09:43.208Z,2.88
2022-08-24T09:12:29.647Z,2.88
2022-08-24T09:15:15.537Z,4.00
2022-08-24T09:18:11.827Z,3.50
2022-08-24T09:21:03.809Z,2.85
2022-08-24T09:23:35.595Z,3.03
2022-08-24T09:26:21.439Z,2.30
2022-08-24T09:29:19.051Z,2.80
2022-08-24T09:32:24.377Z,2.90
2022-08-24T09:35:26.598Z,2.78
2022-08-24T09:38:05.556Z,2.42
2022-08-24T09:41:01.205Z,2.25
2022-08-24T09:44:03.258Z,2.42
2022-08-24T09:46:54.161Z,2.42
2022-08-24T09:49:41.333Z,4.32
2022-08-24T09:52:30.276Z,2.80
2022-08-24T09:55:34.452Z,2.80
2022-08-24T09:58:40.121Z,4.57
2022-08-24T10:01:34.066Z,5.60
2022-08-24T10:04:11.627Z,5.70
2022-08-24T10:06:47.165Z,5.82
2022-08-24T10:09:44.095Z,5.95
2022-08-24T10:12:34.394Z,5.97
2022-08-24T10:15:07.552Z,5.88
2022-08-24T10:18:13.158Z,4.90
2022-08-24T10:21:12.486Z,5.72
2022-08-24T10:23:45.551Z,4.07
2022-08-24T10:26:36.727Z,4.05
2022-08-24T10:29:22.168Z,4.88
2022-08-24T10:32:14.711Z,3.92
2022-08-24T10:34:54.587Z,3.72
2022-08-24T10:37:44.181Z,3.05
2022-08-24T10:40:50.549Z,3.40
2022-08-24T10:43:35.823Z,3.92
2022-08-24T10:46:27.338Z,3.08
2022-08-24T10:49:09.544Z,3.90
2022-08-24T10:52:07.872Z,4.10
2022-08-24T10:54:36.375Z,5.20
2022-08-24T10:57:28.551Z,2.95
2022-08-24T11:00:07.159Z,5.25
2022-08-24T11:02:40.025Z,2.35
2022-08-24T11:05:28.162Z,2.58
2022-08-24T11:08:05.275Z,3.53
2022-08-24T11:10:38.477Z,3.13
2022-08-24T11:13:20.789Z,2.60
2022-08-24T11:15:52.532Z,2.50
2022-08-24T11:18:20.932Z,2.90
2022-08-24T11:20:50.134Z,3.67
2022-08-24T11:23:37.037Z,3.90
2022-08-24T11:26:14.171Z,3.97
2022-08-24T11:28:50.908Z,3.60
2022-08-24T11:31:27.856Z,4.28
2022-08-24T11:34:05.801Z,3.88
2022-08-24T11:36:35.798Z,4.30
2022-08-24T11:39:13.992Z,5.82
2022-08-24T11:42:04.410Z,4.93
2022-08-24T11:44:58.887Z,6.32
2022-08-24T11:47:52.977Z,8.10
2022-08-24T11:50:33.417Z,5.50
2022-08-24T11:53:30.120Z,5.78
2022-08-24T11:56:31.961Z,6.38
2022-08-24T11:59:25.344Z,5.05
2022-08-24T12:02:00.209Z,5.60
2022-08-24T12:04:27.410Z,7.00
2022-08-24T12:07:11.657Z,7.30
2022-08-24T12:09:50.565Z,5.55
2022-08-24T12:12:50.350Z,6.95
2022-08-24T12:15:28.165Z,7.07
2022-08-24T12:18:05.427Z,7.13
2022-08-24T12:20:34.367Z,6.60
2022-08-24T12:23:07.751Z,5.70
2022-08-24T12:25:55.192Z,5.87
2022-08-24T12:28:29.271Z,5.13
2022-08-24T12:31:04.016Z,5.35
2022-08-24T12:33:37.721Z,5.32
2022-08-24T12:36:15.245Z,5.00
2022-08-24T12:38:48.738Z,5.25
2022-08-24T12:41:26.880Z,4.93
2022-08-24T12:44:01.727Z,3.70
2022-08-24T12:46:30.294Z,3.60
2022-08-24T12:49:14.186Z,3.90
2022-08-24T12:52:08.324Z,4.25
2022-08-24T12:54:47.938Z,3.20
2022-08-24T12:57:31.623Z,2.75
2022-08-24T13:00:09.107Z,3.65
2022-08-24T13:02:47.627Z,1.98
2022-08-24T13:05:20.997Z,2.50
2022-08-24T13:07:53.543Z,1.92
2022-08-24T13:10:24.663Z,1.33
2022-08-24T13:13:08.514Z,1.17
2022-08-24T13:15:35.656Z,0.95
2022-08-24T13:18:09.165Z,0.80
2022-08-24T13:20:36.716Z,0.60
2022-08-24T13:23:21.770Z,1.15
2022-08-24T13:25:51.540Z,0.50
2022-08-24T13:28:24.456Z,0.55
2022-08-24T13:31:13.545Z,0.40
2022-08-24T13:33:53.159Z,0.50
2022-08-24T13:36:48.765Z,0.40
2022-08-24T13:39:37.475Z,0.32
2022-08-24T13:42:05.220Z,0.20
2022-08-24T13:45:10.033Z,0.28
2022-08-24T13:48:15.564Z,0.40
2022-08-24T13:51:20.645Z,1.23
2022-08-24T13:54:24.159Z,0.20
2022-08-24T13:57:21.079Z,0.10
2022-08-24T13:59:57.900Z,0.20
2022-08-24T14:02:42.473Z,0.65
2022-08-24T14:05:12.346Z,0.32
2022-08-24T14:08:03.741Z,1.38
2022-08-24T14:10:39.683Z,0.30
2022-08-24T14:13:36.402Z,0.35
2022-08-24T14:16:29.769Z,0.22
2022-08-24T14:19:21.363Z,0.55
2022-08-24T14:22:17.340Z,0.20
2022-08-24T14:27:44.719Z,0.20
2022-08-24T14:30:17.828Z,0.57
2022-08-24T14:33:12.227Z,0.22
2022-08-24T14:35:42.534Z,0.30
2022-08-24T14:38:12.494Z,0.68
2022-08-24T14:40:58.491Z,0.40
2022-08-24T14:46:33.627Z,0.40
2022-08-24T14:49:16.616Z,0.30
2022-08-24T14:51:55.619Z,0.30
2022-08-24T14:55:03.235Z,0.63
2022-08-24T14:57:40.908Z,0.30
2022-08-24T15:00:23.796Z,0.30
2022-08-24T15:03:38.577Z,0.60
2022-08-24T15:06:27.902Z,0.80
2022-08-24T15:09:11.984Z,0.30
2022-08-24T15:11:41.745Z,0.50
2022-08-24T15:14:40.441Z,0.43
2022-08-24T15:17:17.179Z,1.65
2022-08-24T15:20:15.677Z,3.63
2022-08-24T15:22:49.209Z,1.65
2022-08-24T15:25:33.099Z,0.50
2022-08-24T15:28:10.923Z,1.55
2022-08-24T15:30:40.350Z,0.32
2022-08-24T15:33:19.772Z,0.68
2022-08-24T15:36:04.600Z,0.45
2022-08-24T15:38:35.541Z,0.57
2022-08-24T15:41:36.928Z,0.50
2022-08-24T15:44:09.513Z,0.70
2022-08-24T15:46:49.132Z,2.15
2022-08-24T15:49:24.326Z,0.50
2022-08-24T15:54:24.936Z,0.43
2022-08-24T15:57:32.844Z,0.93
2022-08-24T16:01:13.939Z,0.70
2022-08-24T16:03:58.741Z,0.60
2022-08-24T16:06:52.190Z,0.50
2022-08-24T16:09:19.719Z,0.70
2022-08-24T16:11:49.921Z,0.80
2022-08-24T16:14:46.770Z,0.93
2022-08-24T16:17:37.669Z,1.42
2022-08-24T16:20:11.288Z,0.40
2022-08-24T16:22:58.531Z,0.85
2022-08-24T16:25:31.758Z,0.32
2022-08-24T16:28:09.913Z,1.83
2022-08-24T16:30:56.333Z,0.93
2022-08-24T16:33:39.160Z,1.00
2022-08-24T16:36:22.704Z,0.70
2022-08-24T16:38:51.760Z,0.88
2022-08-24T16:41:22.200Z,0.80
2022-08-24T16:43:49.438Z,0.82
2022-08-24T16:46:21.836Z,1.92
2022-08-24T16:48:49.181Z,0.70
2022-08-24T16:51:16.310Z,0.98
2022-08-24T16:53:43.846Z,1.15
2022-08-24T16:56:14.838Z,0.90
2022-08-24T16:58:46.171Z,1.00
2022-08-24T17:01:14.275Z,1.85
2022-08-24T17:03:41.420Z,1.77
2022-08-24T17:06:12.447Z,0.98
2022-08-24T17:08:40.551Z,0.73
2022-08-24T17:11:07.771Z,1.02
2022-08-24T17:13:50.933Z,2.38
2022-08-24T17:16:20.654Z,1.65
2022-08-24T17:18:48.203Z,1.23
2022-08-24T17:21:15.443Z,1.05
2022-08-24T17:23:43.709Z,0.82
2022-08-24T17:26:20.621Z,0.73
2022-08-24T17:28:51.895Z,0.70
2022-08-24T17:31:19.135Z,0.80
2022-08-24T17:33:46.807Z,1.05
2022-08-24T17:36:16.130Z,0.98
2022-08-24T17:38:55.068Z,0.68
2022-08-24T17:41:23.893Z,1.20
2022-08-24T17:43:51.304Z,0.77
2022-08-24T17:46:20.006Z,1.80
2022-08-24T17:48:47.931Z,1.98
2022-08-24T17:51:15.931Z,1.20
2022-08-24T17:53:43.127Z,0.88
2022-08-24T17:56:13.490Z,1.27
2022-08-24T17:59:01.353Z,0.75
2022-08-24T18:01:29.546Z,1.00
2022-08-24T18:03:56.728Z,0.65
2022-08-24T18:06:26.280Z,0.63
2022-08-24T18:08:56.719Z,0.50
2022-08-24T18:11:25.990Z,0.52
2022-08-24T18:13:54.578Z,0.73
2022-08-24T18:16:25.109Z,1.08
2022-08-24T18:18:54.306Z,1.95
2022-08-24T18:21:22.415Z,1.08
2022-08-24T18:23:50.982Z,0.70
2022-08-24T18:26:27.637Z,0.80
2022-08-24T18:29:00.169Z,2.08
2022-08-24T18:31:28.383Z,1.20
2022-08-24T18:33:55.789Z,3.25
2022-08-24T18:36:23.079Z,1.20
2022-08-24T18:38:50.189Z,1.50
2022-08-24T18:41:17.652Z,0.77
2022-08-24T18:43:45.066Z,1.10
2022-08-24T18:46:12.568Z,1.13
2022-08-24T18:48:39.759Z,1.17
2022-08-24T18:51:07.118Z,1.85
2022-08-24T18:53:35.647Z,0.93
2022-08-24T18:56:09.311Z,1.75
2022-08-24T18:58:39.862Z,0.38
2022-08-24T19:01:07.479Z,1.30
2022-08-24T19:03:34.898Z,0.55
2022-08-24T19:06:02.131Z,2.35
2022-08-24T19:08:29.291Z,1.25
2022-08-24T19:10:56.639Z,8.68
2022-08-24T19:13:24.056Z,1.77
2022-08-24T19:15:51.251Z,1.02
2022-08-24T19:18:20.658Z,1.05
2022-08-24T19:20:50.694Z,1.08
2022-08-24T19:23:24.916Z,0.50
2022-08-24T19:25:53.438Z,2.60
2022-08-24T19:28:22.172Z,0.30
2022-08-24T19:30:50.438Z,1.75
2022-08-24T19:33:25.203Z,0.63
2022-08-24T19:35:52.985Z,0.52
2022-08-24T19:38:24.813Z,0.25
2022-08-24T19:40:53.797Z,0.55
2022-08-24T19:43:23.786Z,4.18
2022-08-24T19:46:04.120Z,1.98
2022-08-24T19:48:38.108Z,0.35
2022-08-24T19:51:09.213Z,1.92
2022-08-24T19:53:39.491Z,0.82
2022-08-24T19:56:07.447Z,1.35
2022-08-24T19:58:53.768Z,2.08
2022-08-24T20:01:24.305Z,0.70
2022-08-24T20:03:51.875Z,0.68
2022-08-24T20:06:24.050Z,1.48
2022-08-24T20:08:52.671Z,1.17
2022-08-24T20:11:20.559Z,1.60
2022-08-24T20:13:53.831Z,1.52
2022-08-24T20:16:23.798Z,4.95
2022-08-24T20:18:51.032Z,1.15
2022-08-24T20:21:18.559Z,0.50
2022-08-24T20:23:47.219Z,0.50
2022-08-24T20:26:14.632Z,1.30
2022-08-24T20:28:52.105Z,0.73
2022-08-24T20:31:28.005Z,1.40
2022-08-24T20:33:57.321Z,1.27
2022-08-24T20:36:28.003Z,0.30
2022-08-24T20:38:57.925Z,0.50
2022-08-24T20:41:26.159Z,0.50
2022-08-24T20:43:53.752Z,0.88
2022-08-24T20:46:21.449Z,1.15
2022-08-24T20:48:55.678Z,1.85
2022-08-24T20:51:24.702Z,1.00
2022-08-24T20:53:52.096Z,0.50
2022-08-24T20:56:28.807Z,0.90
2022-08-24T20:59:02.042Z,0.50
2022-08-24T21:01:30.218Z,4.03
2022-08-24T21:04:01.460Z,1.23
2022-08-24T21:06:31.554Z,1.10
2022-08-24T21:08:59.068Z,1.02
2022-08-24T21:11:26.329Z,2.50
2022-08-24T21:13:53.521Z,1.42
2022-08-24T21:16:20.717Z,0.90
2022-08-24T21:18:47.860Z,3.13
2022-08-24T21:21:15.192Z,0.77
2022-08-24T21:23:42.326Z,2.17
2022-08-24T21:26:13.523Z,0.73
2022-08-24T21:28:42.964Z,3.40
2022-08-24T21:31:10.410Z,1.00
2022-08-24T21:33:55.946Z,2.13
2022-08-24T21:36:25.541Z,1.58
2022-08-24T21:38:54.440Z,2.10
2022-08-24T21:41:22.745Z,2.22
2022-08-24T21:43:50.639Z,4.10
2022-08-24T21:46:18.385Z,0.45
2022-08-24T21:48:46.961Z,1.48
2022-08-24T21:51:13.996Z,1.02
2022-08-24T21:53:41.042Z,0.98
2022-08-24T21:56:10.031Z,1.33
2022-08-24T21:58:37.091Z,1.52
2022-08-24T22:01:04.832Z,1.88
2022-08-24T22:03:39.935Z,1.73
2022-08-24T22:06:11.874Z,3.03
2022-08-24T22:08:42.487Z,1.48
2022-08-24T22:11:11.915Z,2.15
2022-08-24T22:13:39.397Z,1.35
2022-08-24T22:16:08.004Z,1.58
2022-08-24T22:18:35.691Z,1.30
2022-08-24T22:21:09.172Z,3.85
2022-08-24T22:23:36.735Z,0.88
2022-08-24T22:26:05.815Z,0.73
2022-08-24T22:28:38.700Z,2.53
2022-08-24T22:31:21.306Z,2.78
2022-08-24T22:33:49.168Z,1.35
2022-08-24T22:36:17.969Z,1.98
2022-08-24T22:38:45.734Z,2.33
2022-08-24T22:41:14.342Z,1.42
2022-08-24T22:44:00.335Z,1.58
2022-08-24T22:46:27.546Z,0.73
2022-08-24T22:48:54.944Z,0.90
2022-08-24T22:51:22.416Z,2.28
2022-08-24T22:53:49.714Z,1.83
2022-08-24T22:56:21.383Z,2.08
2022-08-24T22:58:49.542Z,2.90
2022-08-24T23:01:29.202Z,2.72
2022-08-24T23:03:58.465Z,1.10
2022-08-24T23:06:26.449Z,1.45
2022-08-24T23:08:53.814Z,2.03
2022-08-24T23:11:24.767Z,1.92
2022-08-24T23:13:51.989Z,1.38
2022-08-24T23:16:19.065Z,2.00
2022-08-24T23:19:04.730Z,0.55
2022-08-24T23:21:32.139Z,1.27
2022-08-24T23:23:59.318Z,0.98
2022-08-24T23:26:26.928Z,1.67
2022-08-24T23:28:54.495Z,0.95
2022-08-24T23:31:22.324Z,1.90
2022-08-24T23:33:49.634Z,2.17
2022-08-24T23:36:22.566Z,1.95
2022-08-24T23:38:52.585Z,2.63
2022-08-24T23:41:23.387Z,0.98
2022-08-24T23:43:50.528Z,3.75
2022-08-24T23:46:18.081Z,4.05
2022-08-24T23:48:51.102Z,3.63
2022-08-24T23:51:23.029Z,1.20
2022-08-24T23:53:50.846Z,0.70
2022-08-24T23:56:25.565Z,6.32
2022-08-24T23:58:53.218Z,3.25
